createdAt,value
2016-11-10T00:04:25.808Z,0
2016-11-10T00:09:22.151Z,0
2016-11-10T00:14:18.498Z,0
2016-11-10T00:19:14.813Z,0
2016-11-10T00:24:10.995Z,0
2016-11-10T00:29:08.150Z,0
2016-11-10T00:34:04.428Z,0
2016-11-10T00:39:00.905Z,0
2016-11-10T00:43:57.333Z,0
2016-11-10T00:48:53.972Z,0
2016-11-10T00:53:49.978Z,0
2016-11-10T00:58:46.451Z,0
2016-11-10T01:03:42.835Z,0
2016-11-10T01:08:39.287Z,0
2016-11-10T01:13:35.978Z,0
2016-11-10T01:18:32.211Z,0
2016-11-10T01:23:28.464Z,0
2016-11-10T01:28:24.752Z,0
2016-11-10T01:33:21.121Z,0
2016-11-10T01:38:17.459Z,0
2016-11-10T01:43:14.516Z,0
2016-11-10T01:48:10.545Z,0
2016-11-10T01:53:06.880Z,0
2016-11-10T01:58:03.290Z,0
2016-11-10T02:02:59.572Z,0
2016-11-10T02:07:55.774Z,0
2016-11-10T02:12:52.425Z,0
2016-11-10T02:17:48.886Z,0
2016-11-10T02:22:45.289Z,0
2016-11-10T02:27:41.597Z,0
2016-11-10T02:32:38.019Z,0
2016-11-10T02:37:34.566Z,0
2016-11-10T02:42:30.878Z,0
2016-11-10T02:47:27.357Z,0
2016-11-10T02:52:23.668Z,0
2016-11-10T02:57:20.655Z,0
2016-11-10T03:02:16.980Z,0
2016-11-10T03:07:13.609Z,0
2016-11-10T03:12:09.957Z,0
2016-11-10T03:17:06.411Z,0
2016-11-10T03:22:02.686Z,0
2016-11-10T03:26:59.137Z,0
2016-11-10T03:31:55.483Z,0
2016-11-10T03:36:51.415Z,0
2016-11-10T03:41:47.901Z,0
2016-11-10T03:46:44.337Z,0
2016-11-10T03:51:41.605Z,0
2016-11-10T03:56:37.953Z,0
2016-11-10T04:01:34.309Z,0
2016-11-10T04:06:30.832Z,0
2016-11-10T04:11:27.212Z,0
2016-11-10T04:16:24.018Z,0
2016-11-10T04:21:20.225Z,0
2016-11-10T04:26:16.622Z,0
2016-11-10T04:31:13.289Z,0
2016-11-10T04:36:09.730Z,0
2016-11-10T04:41:05.890Z,0
2016-11-10T04:46:02.339Z,0
2016-11-10T04:50:58.585Z,0
2016-11-10T04:55:54.960Z,0
2016-11-10T05:00:51.368Z,0
2016-11-10T05:05:47.639Z,0
2016-11-10T05:10:44.036Z,0
2016-11-10T05:15:40.563Z,0
2016-11-10T05:20:36.850Z,0
2016-11-10T05:25:33.486Z,0
2016-11-10T05:30:29.897Z,0
2016-11-10T05:35:26.284Z,0
2016-11-10T05:40:22.567Z,0
2016-11-10T05:45:18.852Z,0
2016-11-10T05:50:15.304Z,0
2016-11-10T05:55:12.027Z,0
2016-11-10T06:00:08.317Z,0
2016-11-10T06:05:04.800Z,0
2016-11-10T06:10:01.164Z,0
2016-11-10T06:14:57.569Z,0
2016-11-10T06:19:53.836Z,4
2016-11-10T06:24:50.179Z,8
2016-11-10T06:29:46.702Z,12
2016-11-10T06:34:42.664Z,16
2016-11-10T06:39:39.339Z,28
2016-11-10T06:44:35.854Z,52
2016-11-10T06:49:32.363Z,72
2016-11-10T06:54:28.612Z,108
2016-11-10T06:59:25.102Z,148
2016-11-10T07:04:21.450Z,156
2016-11-10T07:09:17.935Z,160
2016-11-10T07:14:14.135Z,136
2016-11-10T07:19:10.436Z,188
2016-11-10T07:24:06.504Z,196
2016-11-10T07:29:02.985Z,164
2016-11-10T07:33:59.460Z,200
2016-11-10T07:38:55.827Z,188
2016-11-10T07:43:52.534Z,220
2016-11-10T07:48:48.992Z,256
2016-11-10T07:53:46.284Z,280
2016-11-10T07:58:42.634Z,280
2016-11-10T08:03:38.958Z,324
2016-11-10T08:08:35.366Z,468
2016-11-10T08:13:31.882Z,552
2016-11-10T08:18:28.068Z,712
2016-11-10T08:23:24.503Z,780
2016-11-10T08:28:20.957Z,836
2016-11-10T08:33:17.268Z,824
2016-11-10T08:38:14.313Z,796
2016-11-10T08:43:10.749Z,972
2016-11-10T08:48:06.980Z,1020
2016-11-10T08:53:03.507Z,704
2016-11-10T08:57:59.664Z,1304
2016-11-10T09:02:56.047Z,1960
2016-11-10T09:07:52.534Z,1880
2016-11-10T09:12:49.046Z,2624
2016-11-10T09:17:45.909Z,2832
2016-11-10T09:22:43.103Z,3264
2016-11-10T09:27:39.578Z,3204
2016-11-10T09:32:35.682Z,2912
2016-11-10T09:37:32.161Z,3548
2016-11-10T09:42:28.559Z,2840
2016-11-10T09:47:25.113Z,2188
2016-11-10T09:52:21.656Z,1852
2016-11-10T09:57:17.888Z,1788
2016-11-10T10:02:14.252Z,1988
2016-11-10T10:07:10.589Z,1720
2016-11-10T10:12:06.988Z,1552
2016-11-10T10:17:03.591Z,1324
2016-11-10T10:21:59.824Z,1520
2016-11-10T10:26:56.140Z,1108
2016-11-10T10:31:52.427Z,916
2016-11-10T10:36:48.710Z,852
2016-11-10T10:41:45.131Z,836
2016-11-10T10:46:41.108Z,1144
2016-11-10T10:51:38.371Z,1340
2016-11-10T10:56:34.428Z,1424
2016-11-10T11:01:31.525Z,1664
2016-11-10T11:06:28.074Z,1984
2016-11-10T11:11:24.486Z,2588
2016-11-10T11:16:21.240Z,2556
2016-11-10T11:21:17.727Z,3996
2016-11-10T11:26:14.142Z,3800
2016-11-10T11:31:10.595Z,3844
2016-11-10T11:36:06.938Z,3712
2016-11-10T11:41:03.440Z,2668
2016-11-10T11:45:59.889Z,2276
2016-11-10T11:50:56.220Z,2300
2016-11-10T11:55:54.048Z,2376
2016-11-10T12:00:50.487Z,2296
2016-11-10T12:05:47.113Z,2580
2016-11-10T12:10:43.424Z,2632
2016-11-10T12:15:39.756Z,2124
2016-11-10T12:20:36.158Z,1820
2016-11-10T12:25:32.433Z,1576
2016-11-10T12:30:28.748Z,1636
2016-11-10T12:35:25.028Z,1668
2016-11-10T12:40:21.459Z,2200
2016-11-10T12:45:18.374Z,2080
2016-11-10T12:50:14.990Z,1576
2016-11-10T12:55:11.294Z,1492
2016-11-10T13:00:07.595Z,1676
2016-11-10T13:05:04.150Z,1820
2016-11-10T13:10:00.735Z,2644
2016-11-10T13:14:57.087Z,1576
2016-11-10T13:19:53.493Z,1228
2016-11-10T13:24:49.919Z,1060
2016-11-10T13:29:46.158Z,1228
2016-11-10T13:34:42.212Z,1644
2016-11-10T13:39:38.411Z,1420
2016-11-10T13:44:34.815Z,1328
2016-11-10T13:49:31.122Z,1312
2016-11-10T13:54:27.622Z,2056
2016-11-10T13:59:24.313Z,1996
2016-11-10T14:04:20.811Z,1972
2016-11-10T14:09:17.164Z,1676
2016-11-10T14:14:13.427Z,1680
2016-11-10T14:19:09.952Z,1768
2016-11-10T14:24:06.363Z,1924
2016-11-10T14:29:02.862Z,2000
2016-11-10T14:33:59.251Z,1068
2016-11-10T14:38:55.485Z,892
2016-11-10T14:43:51.778Z,904
2016-11-10T14:48:48.189Z,1012
2016-11-10T14:53:44.348Z,872
2016-11-10T14:58:40.739Z,608
2016-11-10T15:03:37.378Z,576
2016-11-10T15:08:33.571Z,588
2016-11-10T15:13:29.855Z,280
2016-11-10T15:18:26.224Z,304
2016-11-10T15:23:22.505Z,216
2016-11-10T15:28:18.851Z,132
2016-11-10T15:33:15.220Z,96
2016-11-10T15:38:11.640Z,68
2016-11-10T15:43:08.027Z,44
2016-11-10T15:48:04.353Z,28
2016-11-10T15:53:00.810Z,24
2016-11-10T15:57:57.144Z,12
2016-11-10T16:02:54.204Z,4
2016-11-10T16:07:50.702Z,4
2016-11-10T16:12:47.228Z,0
2016-11-10T16:17:43.584Z,0
2016-11-10T16:22:40.058Z,0
2016-11-10T16:27:36.385Z,0
2016-11-10T16:32:32.861Z,0
2016-11-10T16:37:30.042Z,0
2016-11-10T16:42:27.177Z,0
2016-11-10T16:47:23.659Z,0
2016-11-10T16:52:19.924Z,0
2016-11-10T16:57:16.253Z,0
2016-11-10T17:02:12.656Z,0
2016-11-10T17:07:09.687Z,0
2016-11-10T17:12:06.144Z,0
2016-11-10T17:17:02.639Z,0
2016-11-10T17:21:58.928Z,0
2016-11-10T17:26:55.286Z,0
2016-11-10T17:31:54.067Z,0
2016-11-10T17:36:50.065Z,0
2016-11-10T17:41:46.359Z,0
2016-11-10T17:46:42.946Z,0
2016-11-10T17:51:38.984Z,0
2016-11-10T17:56:35.384Z,0
2016-11-10T18:01:31.763Z,0
2016-11-10T18:06:28.189Z,0
2016-11-10T18:11:24.291Z,0
2016-11-10T18:16:21.327Z,0
2016-11-10T18:21:18.181Z,0
2016-11-10T18:26:14.710Z,0
2016-11-10T18:31:10.960Z,0
2016-11-10T18:36:07.776Z,0
2016-11-10T18:41:04.069Z,0
2016-11-10T18:46:01.009Z,0
2016-11-10T18:50:57.920Z,0
2016-11-10T18:55:54.236Z,0
2016-11-10T19:00:50.572Z,0
2016-11-10T19:05:46.958Z,0
2016-11-10T19:10:43.391Z,0
2016-11-10T19:15:39.813Z,0
2016-11-10T19:20:36.144Z,0
2016-11-10T19:25:32.643Z,0
2016-11-10T19:30:28.881Z,0
2016-11-10T19:35:25.316Z,0
2016-11-10T19:40:22.301Z,0
2016-11-10T19:45:18.532Z,0
2016-11-10T19:50:15.029Z,0
2016-11-10T19:55:12.058Z,0
2016-11-10T20:00:08.413Z,0
2016-11-10T20:05:04.743Z,0
2016-11-10T20:10:01.070Z,0
2016-11-10T20:14:58.401Z,0
2016-11-10T20:19:54.577Z,0
2016-11-10T20:24:50.909Z,0
2016-11-10T20:29:47.229Z,0
2016-11-10T20:34:43.659Z,0
2016-11-10T20:39:40.146Z,0
2016-11-10T20:44:36.513Z,0
2016-11-10T20:49:35.475Z,0
2016-11-10T20:54:31.159Z,0
2016-11-10T20:59:27.398Z,0
2016-11-10T21:04:23.905Z,0
2016-11-10T21:09:20.681Z,0
2016-11-10T21:14:17.283Z,0
2016-11-10T21:19:13.596Z,0
2016-11-10T21:24:10.301Z,0
2016-11-10T21:29:06.527Z,0
2016-11-10T21:34:03.738Z,0
2016-11-10T21:39:01.498Z,0
2016-11-10T21:43:57.898Z,0
2016-11-10T21:48:54.167Z,0
2016-11-10T21:53:50.484Z,0
2016-11-10T21:58:46.877Z,0
2016-11-10T22:03:43.275Z,0
2016-11-10T22:08:39.548Z,0
2016-11-10T22:13:35.930Z,0
2016-11-10T22:18:32.307Z,0
2016-11-10T22:23:28.836Z,0
2016-11-10T22:28:27.877Z,0
2016-11-10T22:33:23.676Z,0
2016-11-10T22:38:19.796Z,0
2016-11-10T22:43:16.082Z,0
2016-11-10T22:48:12.599Z,0
2016-11-10T22:53:08.941Z,0
2016-11-10T22:58:05.347Z,0
2016-11-10T23:03:01.736Z,0
2016-11-10T23:07:57.874Z,0
2016-11-10T23:12:54.181Z,0
2016-11-10T23:17:50.917Z,0
2016-11-10T23:22:47.093Z,0
2016-11-10T23:27:43.463Z,0
2016-11-10T23:32:39.939Z,0
2016-11-10T23:37:37.003Z,0
2016-11-10T23:42:33.381Z,0
2016-11-10T23:47:29.604Z,0
2016-11-10T23:52:25.906Z,0
2016-11-10T23:57:22.283Z,0
